Time;durP1;ratioP1;P1;durP2;ratioP2;P2;SDS_P1;SDS_P2;PMS_P1;PMS_P2;Temp;Humidity;BMP_temperature;BMP_pressure;BME280_temperature;BME280_humidity;BME280_pressure;Samples;Min_cycle;Max_cycle;Signal;HPM_P1;HPM_P2
2024/01/04 05:05:36;;;;;;;0.30;0.30;;;8.70;99.90;;;;;;5796563;23;20255;-66
2024/01/04 05:08:03;;;;;;;0.30;0.30;;;8.70;99.90;;;;;;4936500;29;20649;-67
2024/01/04 05:10:29;;;;;;;0.30;0.30;;;8.70;99.90;;;;;;4936690;29;20185;-67
2024/01/04 05:12:55;;;;;;;0.30;0.30;;;8.70;99.90;;;;;;4936460;29;20272;-65
2024/01/04 05:15:20;;;;;;;0.30;0.30;;;8.70;99.90;;;;;;4935995;29;20197;-65
2024/01/04 05:17:46;;;;;;;0.30;0.30;;;8.70;99.90;;;;;;4936527;29;20173;-66
2024/01/04 05:20:12;;;;;;;0.30;0.30;;;8.60;99.90;;;;;;4936438;29;20165;-64
2024/01/04 05:22:39;;;;;;;0.30;0.30;;;8.60;99.90;;;;;;4935893;29;20189;-64
2024/01/04 05:25:05;;;;;;;0.30;0.30;;;8.60;99.90;;;;;;4934263;29;20174;-65
2024/01/04 05:27:30;;;;;;;0.30;0.30;;;8.60;99.90;;;;;;4936132;29;20173;-66
2024/01/04 05:29:56;;;;;;;0.30;0.30;;;8.60;99.90;;;;;;4935867;29;20184;-66
2024/01/04 05:32:22;;;;;;;0.30;0.30;;;8.60;99.90;;;;;;4935933;29;20209;-66
2024/01/04 05:34:47;;;;;;;0.37;0.37;;;8.60;99.90;;;;;;4935284;29;20177;-66
2024/01/04 05:37:13;;;;;;;0.30;0.30;;;8.60;99.90;;;;;;4935563;29;20220;-66
2024/01/04 05:39:39;;;;;;;0.30;0.20;;;8.50;99.90;;;;;;4936115;29;20174;-66
2024/01/04 05:42:04;;;;;;;0.30;0.20;;;8.60;99.90;;;;;;4936183;29;20645;-66
2024/01/04 05:44:30;;;;;;;0.30;0.30;;;8.60;99.90;;;;;;4935774;29;20409;-67
2024/01/04 05:46:55;;;;;;;0.40;0.40;;;8.60;99.90;;;;;;4935861;29;20201;-65
2024/01/04 05:49:21;;;;;;;0.30;0.30;;;8.60;99.90;;;;;;4936045;29;20652;-66
2024/01/04 05:51:47;;;;;;;0.30;0.30;;;8.60;99.90;;;;;;4936227;29;20268;-64
2024/01/04 05:54:12;;;;;;;0.30;0.30;;;8.60;99.90;;;;;;4936031;29;20207;-65
2024/01/04 05:56:38;;;;;;;0.30;0.30;;;8.70;99.90;;;;;;4935877;29;20194;-63
2024/01/04 05:59:04;;;;;;;0.30;0.30;;;8.70;99.90;;;;;;4935826;29;20173;-67
2024/01/04 06:01:29;;;;;;;0.30;0.30;;;8.80;99.90;;;;;;4935375;29;20885;-65
2024/01/04 06:03:55;;;;;;;0.30;0.30;;;8.80;99.90;;;;;;4935904;29;20201;-62
2024/01/04 06:06:21;;;;;;;0.30;0.30;;;8.80;99.90;;;;;;4935399;29;20205;-64
2024/01/04 06:08:46;;;;;;;0.30;0.30;;;8.80;99.90;;;;;;4936068;29;20174;-66
2024/01/04 06:11:12;;;;;;;0.30;0.30;;;8.80;99.90;;;;;;4950618;29;20622;-65
2024/01/04 06:13:37;;;;;;;0.30;0.30;;;8.80;99.90;;;;;;4935644;29;20232;-65
2024/01/04 06:16:07;;;;;;;0.30;0.30;;;8.80;99.90;;;;;;4935411;29;20196;-66
2024/01/04 06:18:36;;;;;;;0.20;0.20;;;8.80;99.90;;;;;;4935834;29;20652;-64
2024/01/04 06:21:05;;;;;;;0.35;0.35;;;8.80;99.90;;;;;;4935726;29;20562;-64
2024/01/04 06:23:31;;;;;;;0.40;0.40;;;8.80;99.90;;;;;;4935678;29;20166;-65
2024/01/04 06:25:56;;;;;;;0.30;0.30;;;8.90;99.90;;;;;;4935381;29;20197;-66
2024/01/04 06:28:23;;;;;;;0.30;0.30;;;8.80;99.90;;;;;;4935701;29;20442;-65
2024/01/04 06:30:48;;;;;;;0.30;0.30;;;8.80;99.90;;;;;;4935604;29;20429;-64
2024/01/04 06:33:15;;;;;;;0.30;0.20;;;8.80;99.90;;;;;;4935803;29;20271;-64
2024/01/04 06:35:40;;;;;;;0.30;0.30;;;8.90;99.90;;;;;;4935761;29;20621;-65
2024/01/04 06:38:09;;;;;;;0.30;0.30;;;8.80;99.90;;;;;;4935689;29;20174;-64
2024/01/04 06:40:38;;;;;;;0.30;0.30;;;8.90;99.90;;;;;;4934438;29;20646;-66
2024/01/04 06:43:08;;;;;;;0.30;0.30;;;8.90;99.90;;;;;;4935569;29;20243;-65
2024/01/04 06:45:35;;;;;;;0.30;0.30;;;8.90;99.90;;;;;;4935288;29;20241;-66
2024/01/04 06:48:01;;;;;;;0.30;0.30;;;8.90;99.90;;;;;;4935571;29;20170;-64
2024/01/04 06:50:26;;;;;;;0.40;0.40;;;8.90;99.90;;;;;;4950001;29;20188;-67
2024/01/04 06:52:52;;;;;;;0.30;0.30;;;8.90;99.90;;;;;;4935372;29;20570;-64
2024/01/04 06:55:18;;;;;;;0.30;0.30;;;8.90;99.90;;;;;;4935065;29;20242;-62
2024/01/04 06:57:44;;;;;;;0.30;0.30;;;8.90;99.90;;;;;;4935524;29;20180;-66
2024/01/04 07:00:10;;;;;;;0.30;0.30;;;8.90;99.90;;;;;;4935267;29;20641;-65
2024/01/04 07:02:37;;;;;;;0.30;0.30;;;8.80;99.90;;;;;;4935408;29;20197;-64
2024/01/04 07:05:06;;;;;;;0.40;0.40;;;8.80;99.90;;;;;;4935012;29;20189;-63
2024/01/04 07:07:32;;;;;;;0.30;0.30;;;8.80;99.90;;;;;;4935180;29;20272;-63
2024/01/04 07:09:58;;;;;;;0.30;0.20;;;8.80;99.90;;;;;;4935437;29;20185;-64
2024/01/04 07:12:27;;;;;;;0.30;0.30;;;8.80;99.90;;;;;;4937247;29;20610;-64
2024/01/04 07:14:53;;;;;;;0.30;0.30;;;8.70;99.90;;;;;;4938295;29;20437;-66
2024/01/04 07:17:19;;;;;;;0.30;0.30;;;8.70;99.90;;;;;;4938668;29;20590;-62
2024/01/04 07:19:45;;;;;;;0.30;0.30;;;8.80;99.90;;;;;;4938396;29;20173;-64
2024/01/04 07:22:11;;;;;;;0.30;0.30;;;8.80;99.90;;;;;;4938676;29;20173;-63
2024/01/04 07:24:37;;;;;;;0.50;0.50;;;8.80;99.90;;;;;;4938264;29;20556;-63
2024/01/04 07:27:04;;;;;;;0.30;0.30;;;8.80;99.90;;;;;;4938237;29;20408;-62
2024/01/04 07:29:33;;;;;;;0.30;0.20;;;8.90;99.90;;;;;;4938275;29;20200;-63
2024/01/04 07:31:58;;;;;;;0.30;0.30;;;8.90;99.90;;;;;;4938189;29;20197;-66
2024/01/04 07:34:24;;;;;;;0.30;0.20;;;8.90;99.90;;;;;;4937980;29;20244;-64
2024/01/04 07:36:51;;;;;;;0.40;0.40;;;8.90;99.90;;;;;;4953181;28;20210;-64
2024/01/04 07:39:16;;;;;;;0.30;0.30;;;8.90;99.90;;;;;;4936701;29;20166;-65
2024/01/04 07:41:45;;;;;;;0.37;0.37;;;8.90;99.90;;;;;;4936232;29;20265;-64
2024/01/04 07:44:11;;;;;;;0.30;0.30;;;8.90;99.90;;;;;;4936043;29;20515;-63
2024/01/04 07:46:37;;;;;;;0.40;0.40;;;8.90;99.90;;;;;;4936154;29;20208;-65
2024/01/04 07:49:07;;;;;;;0.30;0.30;;;8.80;99.90;;;;;;4934866;29;20916;-66
2024/01/04 07:51:33;;;;;;;0.30;0.30;;;8.80;99.90;;;;;;4936416;29;20574;-65
2024/01/04 07:53:59;;;;;;;0.30;0.30;;;8.80;99.90;;;;;;4937447;29;20193;-65
2024/01/04 07:56:25;;;;;;;0.30;0.30;;;8.80;99.90;;;;;;4937625;29;20288;-63
2024/01/04 07:58:50;;;;;;;0.30;0.30;;;8.80;99.90;;;;;;4935924;29;20183;-64
2024/01/04 08:01:16;;;;;;;0.30;0.30;;;8.70;99.90;;;;;;4937446;29;20174;-65
2024/01/04 08:03:42;;;;;;;0.30;0.30;;;8.70;99.90;;;;;;4938097;29;20201;-69
2024/01/04 08:06:09;;;;;;;0.30;0.30;;;8.70;99.90;;;;;;4925560;29;20347;-65
2024/01/04 08:08:35;;;;;;;0.30;0.30;;;8.70;99.90;;;;;;4918640;29;20246;-67
2024/01/04 08:11:01;;;;;;;0.30;0.20;;;8.70;99.90;;;;;;4918771;29;20166;-63
2024/01/04 08:13:26;;;;;;;0.30;0.30;;;8.70;99.90;;;;;;4918719;29;20204;-64
2024/01/04 08:15:52;;;;;;;0.30;0.20;;;8.70;99.90;;;;;;4918395;29;20477;-64
2024/01/04 08:18:22;;;;;;;0.30;0.30;;;8.70;99.90;;;;;;4930474;29;20177;-64
2024/01/04 08:20:50;;;;;;;0.30;0.30;;;8.70;99.90;;;;;;4937812;29;20193;-61
2024/01/04 08:23:15;;;;;;;0.30;0.30;;;8.80;99.90;;;;;;4936755;29;20174;-63
2024/01/04 08:25:41;;;;;;;0.30;0.30;;;9.10;99.90;;;;;;4937092;29;20198;-61
2024/01/04 08:28:10;;;;;;;0.30;0.30;;;9.40;99.90;;;;;;4936687;29;20186;-65
2024/01/04 08:30:37;;;;;;;0.30;0.30;;;9.70;99.90;;;;;;4923188;29;20182;-64
2024/01/04 08:33:02;;;;;;;0.30;0.30;;;10.00;99.90;;;;;;4933147;29;20439;-67
2024/01/04 08:35:28;;;;;;;0.30;0.20;;;10.30;99.90;;;;;;4922571;29;20439;-66
2024/01/04 08:37:54;;;;;;;0.30;0.20;;;10.70;99.90;;;;;;4931693;29;20661;-66
2024/01/04 08:40:20;;;;;;;0.30;0.20;;;11.10;99.90;;;;;;4937020;29;20178;-65
2024/01/04 08:42:45;;;;;;;0.30;0.27;;;11.60;99.90;;;;;;4922631;29;20421;-68
2024/01/04 08:45:11;;;;;;;0.30;0.30;;;12.10;99.90;;;;;;4917926;29;20244;-66
2024/01/04 08:47:37;;;;;;;0.30;0.30;;;12.30;99.90;;;;;;4943331;29;20180;-68
2024/01/04 08:50:04;;;;;;;0.30;0.30;;;12.40;99.90;;;;;;4927509;28;20187;-65
2024/01/04 08:52:30;;;;;;;0.30;0.20;;;12.50;99.90;;;;;;4924110;29;20552;-66
2024/01/04 08:54:56;;;;;;;0.30;0.20;;;12.80;99.90;;;;;;4922755;29;20496;-67
2024/01/04 08:57:22;;;;;;;0.30;0.30;;;13.20;99.90;;;;;;4936862;29;20469;-68
2024/01/04 08:59:47;;;;;;;0.30;0.30;;;13.60;99.90;;;;;;4936143;29;20495;-63
2024/01/04 09:02:13;;;;;;;0.30;0.30;;;13.90;99.90;;;;;;4924545;29;20225;-66
2024/01/04 09:04:39;;;;;;;0.30;0.20;;;13.90;99.90;;;;;;4935958;29;20697;-66
2024/01/04 09:07:06;;;;;;;0.63;0.47;;;13.80;99.90;;;;;;4935272;29;20423;-69
2024/01/04 09:09:32;;;;;;;0.40;0.40;;;13.40;99.90;;;;;;4934982;29;20761;-68
2024/01/04 09:11:57;;;;;;;0.30;0.30;;;12.90;99.90;;;;;;4927572;29;20551;-66
2024/01/04 09:14:23;;;;;;;0.30;0.30;;;12.50;99.90;;;;;;4916892;29;20201;-66
2024/01/04 09:16:49;;;;;;;0.30;0.30;;;12.20;99.90;;;;;;4917453;29;20201;-65
2024/01/04 09:19:19;;;;;;;0.30;0.30;;;12.00;99.90;;;;;;4916272;29;20181;-62
2024/01/04 09:21:48;;;;;;;0.30;0.30;;;11.80;99.90;;;;;;4917613;29;20547;-65
2024/01/04 09:24:14;;;;;;;0.30;0.30;;;11.60;99.90;;;;;;4926167;29;20517;-68
2024/01/04 09:26:40;;;;;;;0.30;0.30;;;11.40;99.90;;;;;;4934975;29;20991;-65
2024/01/04 09:29:07;;;;;;;0.30;0.27;;;11.40;99.90;;;;;;4936453;29;20504;-64
2024/01/04 09:31:32;;;;;;;1.70;1.37;;;11.70;99.90;;;;;;4936344;29;20409;-64
2024/01/04 09:33:58;;;;;;;0.30;0.30;;;12.00;99.90;;;;;;4936428;29;20925;-63
2024/01/04 09:36:23;;;;;;;0.30;0.30;;;12.30;99.90;;;;;;4934838;29;20190;-68
2024/01/04 09:38:50;;;;;;;0.50;0.50;;;12.50;99.90;;;;;;4938772;29;20262;-65
2024/01/04 09:41:30;;;;;;;0.30;0.20;;;12.90;99.90;;;;;;4936002;29;20261;-65
2024/01/04 09:43:57;;;;;;;0.30;0.20;;;13.30;99.90;;;;;;4936315;29;20711;-64
2024/01/04 09:46:32;;;;;;;0.30;0.27;;;13.70;99.90;;;;;;4944059;28;20460;-66
2024/01/04 09:49:01;;;;;;;0.30;0.30;;;14.10;99.90;;;;;;4934455;29;20957;-65
2024/01/04 09:51:28;;;;;;;0.30;0.30;;;14.10;99.90;;;;;;4934127;29;20408;-65
2024/01/04 09:53:54;;;;;;;0.30;0.20;;;13.90;99.90;;;;;;4918567;29;20428;-66
2024/01/04 09:56:22;;;;;;;0.30;0.30;;;13.70;99.90;;;;;;4920053;29;20491;-66
2024/01/04 09:58:48;;;;;;;0.30;0.30;;;13.50;99.90;;;;;;4935917;29;20844;-65
2024/01/04 10:01:21;;;;;;;0.30;0.30;;;13.30;99.90;;;;;;4936029;29;20473;-65
2024/01/04 10:03:48;;;;;;;0.30;0.20;;;13.10;99.90;;;;;;4932165;29;20394;-65
2024/01/04 10:06:21;;;;;;;0.30;0.30;;;12.90;99.90;;;;;;4926483;29;20474;-66
2024/01/04 10:08:54;;;;;;;0.30;0.30;;;12.60;99.90;;;;;;4936229;29;20477;-66
2024/01/04 10:11:27;;;;;;;0.30;0.30;;;12.30;99.90;;;;;;4935862;29;20419;-65
2024/01/04 10:13:54;;;;;;;0.30;0.30;;;12.10;99.90;;;;;;4931586;29;20505;-66
2024/01/04 10:16:20;;;;;;;0.30;0.30;;;12.10;99.90;;;;;;4916424;29;20525;-66
2024/01/04 10:18:46;;;;;;;0.30;0.20;;;11.80;99.90;;;;;;4918109;29;20185;-65
2024/01/04 10:21:12;;;;;;;0.30;0.30;;;11.70;99.90;;;;;;4935812;29;20208;-65
2024/01/04 10:23:37;;;;;;;0.30;0.30;;;11.50;99.90;;;;;;4935820;29;20409;-65
2024/01/04 10:26:07;;;;;;;0.30;0.30;;;11.20;99.90;;;;;;4916699;29;20205;-64
2024/01/04 10:28:35;;;;;;;0.30;0.30;;;11.00;99.90;;;;;;4916770;29;20185;-64
2024/01/04 10:31:03;;;;;;;0.30;0.30;;;10.90;99.90;;;;;;4916225;29;20483;-65
2024/01/04 10:33:29;;;;;;;0.30;0.30;;;10.70;99.90;;;;;;4916521;29;20461;-67
2024/01/04 10:35:55;;;;;;;0.30;0.30;;;10.50;99.90;;;;;;4915749;29;20449;-64
2024/01/04 10:38:22;;;;;;;0.30;0.27;;;10.40;99.90;;;;;;4916813;29;20413;-64
2024/01/04 10:41:01;;;;;;;0.30;0.30;;;10.40;99.90;;;;;;4916635;29;20177;-63
2024/01/04 10:43:27;;;;;;;0.30;0.30;;;10.20;99.90;;;;;;4920502;29;20398;-65
2024/01/04 10:46:00;;;;;;;0.30;0.30;;;10.10;99.90;;;;;;4933069;29;20416;-63
2024/01/04 10:48:25;;;;;;;0.30;0.30;;;10.00;99.90;;;;;;4938856;29;20472;-65
2024/01/04 10:50:52;;;;;;;0.40;0.40;;;9.90;99.90;;;;;;4937364;29;20517;-65
2024/01/04 10:53:18;;;;;;;0.30;0.30;;;9.80;99.90;;;;;;4938716;29;20199;-65
2024/01/04 10:55:47;;;;;;;0.30;0.30;;;9.70;99.90;;;;;;4938655;29;20520;-65
2024/01/04 10:58:13;;;;;;;0.30;0.30;;;9.70;99.90;;;;;;4930773;29;20569;-64
2024/01/04 11:00:40;;;;;;;0.30;0.20;;;9.60;99.90;;;;;;4918718;29;20183;-65
2024/01/04 11:03:09;;;;;;;0.30;0.30;;;9.70;99.90;;;;;;4921274;29;20256;-63
2024/01/04 11:05:37;;;;;;;0.30;0.30;;;9.80;99.90;;;;;;4922049;29;20282;-64
2024/01/04 11:08:04;;;;;;;0.30;0.30;;;9.90;99.90;;;;;;4919707;29;20726;-64
2024/01/04 11:10:32;;;;;;;0.30;0.30;;;10.20;99.90;;;;;;4919796;29;20423;-66
2024/01/04 11:12:58;;;;;;;0.30;0.30;;;10.50;99.90;;;;;;4920918;29;20547;-66
2024/01/04 11:15:24;;;;;;;0.30;0.30;;;10.80;99.90;;;;;;4937961;29;20450;-63
2024/01/04 11:18:11;;;;;;;0.30;0.30;;;11.00;99.90;;;;;;4938400;29;20730;-64
2024/01/04 11:21:10;;;;;;;0.30;0.30;;;11.10;99.90;;;;;;4937191;29;20588;-66
2024/01/04 11:24:02;;;;;;;0.37;0.37;;;11.00;99.90;;;;;;4931861;29;20429;-65
2024/01/04 11:26:58;;;;;;;0.30;0.30;;;11.00;99.90;;;;;;4926389;29;20779;-65
2024/01/04 11:29:25;;;;;;;0.40;0.40;;;11.00;99.90;;;;;;4903069;29;20404;-66
2024/01/04 11:31:51;;;;;;;0.30;0.30;;;10.90;99.90;;;;;;4919485;29;20452;-65
2024/01/04 11:34:18;;;;;;;0.30;0.30;;;10.80;99.90;;;;;;4924352;29;20925;-64
2024/01/04 11:36:44;;;;;;;0.30;0.20;;;10.80;99.90;;;;;;4938410;29;20477;-63
2024/01/04 11:39:10;;;;;;;0.40;0.40;;;10.70;99.90;;;;;;4926086;29;20456;-65
2024/01/04 11:41:37;;;;;;;0.30;0.20;;;10.80;99.90;;;;;;4919477;29;20165;-65
2024/01/04 11:44:14;;;;;;;0.30;0.30;;;10.80;99.90;;;;;;4927891;29;20451;-66
2024/01/04 11:46:41;;;;;;;0.30;0.30;;;10.70;99.90;;;;;;4938303;29;20826;-64
2024/01/04 11:49:07;;;;;;;0.30;0.30;;;10.50;99.90;;;;;;4928061;29;20418;-66
2024/01/04 11:51:41;;;;;;;0.30;0.30;;;10.40;99.90;;;;;;4918942;29;20418;-67
2024/01/04 11:54:10;;;;;;;0.30;0.28;;;10.20;99.90;;;;;;4926918;29;20251;-64
2024/01/04 11:56:37;;;;;;;0.30;0.30;;;10.10;99.90;;;;;;4957201;28;20709;-62
2024/01/04 11:59:10;;;;;;;0.30;0.30;;;10.00;99.90;;;;;;4941211;28;20425;-65
2024/01/04 12:01:38;;;;;;;0.30;0.30;;;9.90;99.90;;;;;;4938038;29;20779;-64
2024/01/04 12:04:14;;;;;;;0.30;0.30;;;9.80;99.90;;;;;;4936101;29;20189;-63
2024/01/04 12:06:42;;;;;;;0.30;0.30;;;9.80;99.90;;;;;;4937523;29;20525;-63
2024/01/04 12:09:09;;;;;;;0.30;0.30;;;9.70;99.90;;;;;;4931813;29;20419;-64
2024/01/04 12:11:43;;;;;;;0.38;0.38;;;9.60;99.90;;;;;;4933279;29;20261;-63
2024/01/04 12:14:09;;;;;;;0.30;0.28;;;9.50;99.90;;;;;;4918381;29;20181;-67
2024/01/04 12:16:38;;;;;;;0.30;0.30;;;9.50;99.90;;;;;;4930109;29;20236;-62
2024/01/04 12:19:04;;;;;;;0.30;0.30;;;9.50;99.90;;;;;;4934319;29;20242;-66
2024/01/04 12:21:30;;;;;;;0.30;0.30;;;9.60;99.90;;;;;;4937415;29;20530;-65
2024/01/04 12:23:56;;;;;;;0.30;0.30;;;9.70;99.90;;;;;;4937384;29;20171;-63
2024/01/04 12:26:23;;;;;;;0.30;0.30;;;9.90;99.90;;;;;;4926555;29;20195;-66
2024/01/04 12:28:53;;;;;;;0.30;0.30;;;10.00;99.90;;;;;;4918003;29;20748;-65
2024/01/04 12:31:28;;;;;;;0.30;0.30;;;10.10;99.90;;;;;;4917891;29;20184;-63
2024/01/04 12:33:56;;;;;;;0.30;0.30;;;10.20;99.90;;;;;;4919073;29;20217;-64
2024/01/04 12:36:22;;;;;;;0.37;0.37;;;10.20;99.90;;;;;;4917721;29;20206;-62
2024/01/04 12:38:50;;;;;;;0.30;0.30;;;10.30;99.90;;;;;;4917515;29;20418;-63
2024/01/04 12:41:28;;;;;;;0.30;0.30;;;10.30;99.90;;;;;;4918064;29;20176;-64
2024/01/04 12:43:55;;;;;;;0.30;0.20;;;10.30;99.90;;;;;;4924458;29;20268;-67
2024/01/04 12:46:21;;;;;;;0.30;0.30;;;10.40;99.90;;;;;;4935583;29;20206;-64
2024/01/04 12:48:47;;;;;;;0.30;0.30;;;10.40;99.90;;;;;;4936580;29;20170;-65
2024/01/04 12:51:16;;;;;;;0.30;0.30;;;10.40;99.90;;;;;;4939880;28;20189;-65
2024/01/04 12:53:44;;;;;;;0.30;0.30;;;10.40;99.90;;;;;;4954538;28;20464;-67
2024/01/04 12:56:15;;;;;;;0.30;0.30;;;10.50;99.90;;;;;;4936339;29;20205;-65
2024/01/04 12:58:41;;;;;;;0.30;0.20;;;10.60;99.90;;;;;;4936421;29;20688;-65
2024/01/04 13:01:07;;;;;;;0.30;0.30;;;10.70;99.90;;;;;;4936732;29;20419;-64
2024/01/04 13:03:32;;;;;;;0.30;0.30;;;10.70;99.90;;;;;;4936793;29;20633;-65
2024/01/04 13:05:58;;;;;;;0.30;0.30;;;10.80;99.90;;;;;;4934555;29;20200;-63
2024/01/04 13:08:24;;;;;;;0.33;0.33;;;10.80;99.90;;;;;;4936495;29;20192;-64
2024/01/04 13:10:49;;;;;;;0.30;0.30;;;10.80;99.90;;;;;;4936435;29;20175;-65
2024/01/04 13:13:15;;;;;;;0.30;0.20;;;10.90;99.90;;;;;;4936397;29;20699;-67
2024/01/04 13:15:42;;;;;;;0.30;0.30;;;10.80;99.90;;;;;;4934107;29;20696;-66
2024/01/04 13:18:09;;;;;;;0.30;0.30;;;10.80;99.90;;;;;;4935361;29;20191;-67
2024/01/04 13:20:34;;;;;;;0.30;0.30;;;10.70;99.90;;;;;;4923693;29;20178;-65
2024/01/04 13:23:00;;;;;;;0.30;0.20;;;10.70;99.90;;;;;;4917256;29;20475;-65
2024/01/04 13:25:26;;;;;;;0.30;0.30;;;10.70;99.90;;;;;;4931506;29;20199;-64
2024/01/04 13:27:52;;;;;;;0.30;0.30;;;10.70;99.90;;;;;;4952600;28;20181;-65
2024/01/04 13:30:18;;;;;;;0.30;0.27;;;10.70;99.90;;;;;;4955241;28;20531;-63
2024/01/04 13:32:45;;;;;;;0.30;0.30;;;10.70;99.90;;;;;;4940928;28;20799;-66
2024/01/04 13:35:11;;;;;;;0.30;0.30;;;10.60;99.90;;;;;;4921238;29;20533;-66
2024/01/04 13:37:36;;;;;;;0.30;0.30;;;10.60;99.90;;;;;;4935268;29;20536;-63
2024/01/04 13:40:02;;;;;;;0.30;0.30;;;10.60;99.90;;;;;;4936006;29;20490;-62
2024/01/04 13:42:28;;;;;;;0.30;0.30;;;10.50;99.90;;;;;;4924267;29;20187;-62
2024/01/04 13:44:53;;;;;;;0.30;0.30;;;10.60;99.90;;;;;;4931668;29;20179;-63
2024/01/04 13:47:19;;;;;;;0.30;0.30;;;10.60;99.90;;;;;;4948535;29;20218;-62
2024/01/04 13:49:44;;;;;;;0.37;0.37;;;10.50;99.90;;;;;;4950584;28;20179;-64
2024/01/04 13:52:10;;;;;;;0.40;0.40;;;10.60;99.90;;;;;;4916649;29;20232;-63
2024/01/04 13:54:35;;;;;;;0.30;0.30;;;10.60;99.90;;;;;;4916901;29;20180;-63
2024/01/04 13:57:02;;;;;;;0.30;0.30;;;10.60;99.90;;;;;;4916918;29;20197;-64
2024/01/04 13:59:32;;;;;;;0.30;0.30;;;10.60;99.90;;;;;;4916764;29;20628;-64
2024/01/04 14:01:57;;;;;;;0.30;0.30;;;10.60;99.90;;;;;;4916836;29;20426;-64
2024/01/04 14:04:24;;;;;;;0.37;0.37;;;10.60;99.90;;;;;;4932508;29;20936;-66
2024/01/04 14:06:49;;;;;;;0.30;0.30;;;10.60;99.90;;;;;;4935525;29;20453;-64
2024/01/04 14:09:17;;;;;;;0.30;0.30;;;10.60;99.90;;;;;;4935956;29;20409;-63
2024/01/04 14:11:44;;;;;;;0.30;0.30;;;10.50;99.90;;;;;;4935548;29;20176;-62
2024/01/04 14:14:12;;;;;;;0.30;0.30;;;10.50;99.90;;;;;;4927468;29;20408;-65
2024/01/04 14:16:39;;;;;;;0.30;0.30;;;10.40;99.90;;;;;;4916517;29;20789;-65
2024/01/04 14:19:06;;;;;;;0.30;0.30;;;10.40;99.90;;;;;;4920214;29;20725;-65
2024/01/04 14:21:31;;;;;;;0.30;0.30;;;10.40;99.90;;;;;;4936590;29;20401;-64
2024/01/04 14:23:57;;;;;;;0.40;0.40;;;10.40;99.90;;;;;;4939641;29;20754;-64
2024/01/04 14:26:23;;;;;;;0.30;0.30;;;10.40;99.90;;;;;;4923757;29;20302;-63
2024/01/04 14:28:48;;;;;;;0.30;0.30;;;10.40;99.90;;;;;;4920549;29;20223;-63
2024/01/04 14:31:14;;;;;;;0.30;0.30;;;10.40;99.90;;;;;;4920632;29;20632;-62
2024/01/04 14:33:40;;;;;;;0.30;0.30;;;10.40;99.90;;;;;;4920339;29;20253;-64
2024/01/04 14:36:07;;;;;;;0.30;0.30;;;10.40;99.90;;;;;;4935734;29;20201;-64
2024/01/04 14:38:35;;;;;;;0.30;0.30;;;10.40;99.90;;;;;;4939431;29;20411;-63
2024/01/04 14:41:07;;;;;;;0.30;0.20;;;10.20;99.90;;;;;;4939273;29;20401;-64
2024/01/04 14:43:34;;;;;;;0.30;0.30;;;10.20;99.90;;;;;;4939192;29;20223;-65
2024/01/04 14:46:02;;;;;;;0.30;0.30;;;10.20;99.90;;;;;;4922632;29;20439;-63
2024/01/04 14:48:27;;;;;;;0.30;0.30;;;10.20;99.90;;;;;;4920141;29;20749;-65
2024/01/04 14:50:53;;;;;;;0.30;0.23;;;10.20;99.90;;;;;;4933593;29;20447;-64
2024/01/04 14:53:18;;;;;;;0.30;0.30;;;10.10;99.90;;;;;;4938973;29;20203;-65
2024/01/04 14:55:44;;;;;;;0.30;0.30;;;10.10;99.90;;;;;;4938608;29;20250;-62
2024/01/04 14:58:10;;;;;;;0.33;0.33;;;10.10;99.90;;;;;;4938282;29;20210;-63
2024/01/04 15:00:36;;;;;;;0.30;0.30;;;10.10;99.90;;;;;;4937340;29;20182;-64
2024/01/04 15:03:02;;;;;;;0.40;0.40;;;10.10;99.90;;;;;;4938778;29;20695;-64
2024/01/04 15:05:28;;;;;;;0.30;0.30;;;10.10;99.90;;;;;;4929717;29;20212;-62
2024/01/04 15:07:53;;;;;;;0.30;0.30;;;10.10;99.90;;;;;;4919584;29;20457;-63
2024/01/04 15:10:19;;;;;;;0.30;0.30;;;10.10;99.90;;;;;;4937082;29;20714;-63
2024/01/04 15:12:44;;;;;;;0.30;0.30;;;10.10;99.90;;;;;;4938967;29;20591;-62
2024/01/04 15:15:10;;;;;;;0.37;0.37;;;10.00;99.90;;;;;;4938219;29;20570;-63
2024/01/04 15:17:37;;;;;;;0.30;0.30;;;10.00;99.90;;;;;;4938650;29;20175;-63
2024/01/04 15:20:05;;;;;;;0.52;0.43;;;9.90;99.90;;;;;;4934942;29;20178;-64
2024/01/04 15:22:32;;;;;;;0.40;0.40;;;9.80;99.90;;;;;;4919460;29;20181;-63
2024/01/04 15:24:57;;;;;;;0.40;0.40;;;9.80;99.90;;;;;;4919101;29;20450;-64
2024/01/04 15:27:23;;;;;;;0.30;0.30;;;9.70;99.90;;;;;;4919700;29;20219;-65
2024/01/04 15:29:51;;;;;;;0.30;0.30;;;9.60;99.90;;;;;;4919464;29;20423;-62
2024/01/04 15:32:18;;;;;;;0.30;0.30;;;9.60;99.90;;;;;;4919067;29;20209;-64
2024/01/04 15:34:44;;;;;;;0.30;0.30;;;9.50;99.90;;;;;;4918954;29;20177;-63
2024/01/04 15:37:10;;;;;;;0.30;0.30;;;9.40;99.90;;;;;;4919566;29;20268;-65
2024/01/04 15:39:36;;;;;;;0.30;0.30;;;9.30;99.90;;;;;;4919153;29;20249;-65
2024/01/04 15:42:02;;;;;;;0.30;0.20;;;9.20;99.90;;;;;;4926783;29;20259;-62
2024/01/04 15:44:28;;;;;;;0.30;0.30;;;9.10;99.90;;;;;;4937515;29;20510;-64
2024/01/04 15:46:53;;;;;;;0.30;0.30;;;9.10;99.90;;;;;;4936721;29;20441;-62
2024/01/04 15:49:19;;;;;;;0.30;0.30;;;9.00;99.90;;;;;;4954042;29;20216;-63
2024/01/04 15:51:45;;;;;;;0.40;0.40;;;8.90;99.90;;;;;;4957381;28;20173;-64
2024/01/04 15:54:11;;;;;;;1.00;1.00;;;8.80;99.90;;;;;;4956753;28;20169;-64
2024/01/04 15:56:36;;;;;;;0.30;0.30;;;8.80;99.90;;;;;;4956633;28;20189;-63
2024/01/04 15:59:05;;;;;;;0.30;0.30;;;8.80;99.90;;;;;;4957090;29;20487;-65
2024/01/04 16:01:31;;;;;;;0.40;0.40;;;8.70;99.90;;;;;;4939461;28;20177;-63
2024/01/04 16:03:58;;;;;;;0.40;0.40;;;8.70;99.90;;;;;;4937643;29;20189;-64
2024/01/04 16:06:24;;;;;;;1.20;0.88;;;8.70;99.90;;;;;;4936973;29;20201;-63
2024/01/04 16:08:50;;;;;;;0.40;0.40;;;8.70;99.90;;;;;;4937794;29;20182;-64
2024/01/04 16:11:15;;;;;;;0.37;0.37;;;8.60;99.90;;;;;;4937968;29;20176;-63
2024/01/04 16:13:41;;;;;;;0.37;0.37;;;8.60;99.90;;;;;;4937383;29;20228;-63
2024/01/04 16:16:07;;;;;;;0.30;0.30;;;8.60;99.90;;;;;;4935741;29;20205;-63
2024/01/04 16:18:33;;;;;;;0.30;0.30;;;8.50;99.90;;;;;;4937506;29;20182;-66
2024/01/04 16:20:59;;;;;;;0.30;0.30;;;8.50;99.90;;;;;;4935807;29;20261;-66
2024/01/04 16:23:25;;;;;;;0.32;0.32;;;8.40;99.90;;;;;;4937251;29;20177;-67
2024/01/04 16:25:51;;;;;;;0.30;0.30;;;8.40;99.90;;;;;;4936850;29;20195;-67
2024/01/04 16:28:21;;;;;;;0.30;0.30;;;8.30;99.90;;;;;;4941629;29;20177;-66
2024/01/04 16:30:49;;;;;;;0.30;0.30;;;8.30;99.90;;;;;;4956017;28;20652;-69
2024/01/04 16:33:15;;;;;;;0.30;0.30;;;8.30;99.90;;;;;;4954873;28;20328;-62
2024/01/04 16:35:45;;;;;;;0.30;0.30;;;8.20;99.90;;;;;;4943488;28;20265;-67
2024/01/04 16:38:10;;;;;;;0.40;0.40;;;8.20;99.90;;;;;;4916972;29;20174;-65
2024/01/04 16:40:36;;;;;;;0.30;0.30;;;8.20;99.90;;;;;;4917553;29;20218;-62
2024/01/04 16:43:05;;;;;;;0.30;0.30;;;8.20;99.90;;;;;;4918527;29;20182;-72
2024/01/04 16:45:31;;;;;;;0.40;0.40;;;8.20;99.90;;;;;;4931131;29;20446;-65
2024/01/04 16:47:56;;;;;;;0.40;0.40;;;8.20;99.90;;;;;;4933706;29;20243;-63
2024/01/04 16:50:22;;;;;;;0.30;0.30;;;8.20;99.90;;;;;;4935302;29;20182;-64
2024/01/04 16:52:47;;;;;;;0.40;0.40;;;8.30;99.90;;;;;;4936560;29;20259;-64
2024/01/04 16:55:13;;;;;;;0.30;0.30;;;8.30;99.90;;;;;;4936056;29;20191;-63
2024/01/04 16:57:41;;;;;;;0.30;0.30;;;8.30;99.90;;;;;;4934765;29;20546;-62
2024/01/04 17:00:07;;;;;;;0.30;0.30;;;8.30;99.90;;;;;;4923845;29;20178;-62
2024/01/04 17:02:33;;;;;;;0.30;0.30;;;8.40;99.90;;;;;;4932969;29;20182;-62
2024/01/04 17:04:59;;;;;;;0.30;0.30;;;8.40;99.90;;;;;;4935551;29;20181;-62
2024/01/04 17:07:25;;;;;;;0.30;0.30;;;8.40;99.90;;;;;;4936061;29;20629;-61
2024/01/04 17:09:51;;;;;;;0.30;0.30;;;8.50;99.90;;;;;;4935932;29;20225;-63
2024/01/04 17:12:16;;;;;;;0.40;0.40;;;8.50;99.90;;;;;;4936083;29;20209;-65
2024/01/04 17:14:42;;;;;;;0.30;0.30;;;8.60;99.90;;;;;;4932987;29;20409;-65
2024/01/04 17:17:08;;;;;;;0.30;0.30;;;8.60;99.90;;;;;;4927293;29;20280;-64
2024/01/04 17:19:33;;;;;;;0.40;0.40;;;8.70;99.90;;;;;;4917420;29;20530;-66
2024/01/04 17:22:03;;;;;;;0.40;0.40;;;8.70;99.90;;;;;;4934249;29;20658;-68
2024/01/04 17:24:32;;;;;;;0.38;0.38;;;8.80;99.90;;;;;;4935324;29;20178;-68
2024/01/04 17:26:58;;;;;;;0.30;0.30;;;8.80;99.90;;;;;;4922122;29;20198;-64
2024/01/04 17:29:23;;;;;;;0.30;0.30;;;8.80;99.90;;;;;;4917037;29;20270;-64
2024/01/04 17:31:49;;;;;;;0.30;0.30;;;8.90;99.90;;;;;;4917072;29;21007;-65
2024/01/04 17:34:15;;;;;;;0.40;0.40;;;8.90;99.90;;;;;;4915555;29;20682;-65
2024/01/04 17:36:42;;;;;;;0.30;0.30;;;8.90;99.90;;;;;;4916761;29;20228;-64
2024/01/04 17:39:08;;;;;;;0.30;0.30;;;8.90;99.90;;;;;;4919678;29;20182;-64
2024/01/04 17:41:34;;;;;;;0.30;0.30;;;8.90;99.90;;;;;;4936042;29;20210;-68
2024/01/04 17:44:00;;;;;;;0.30;0.30;;;8.90;99.90;;;;;;4917686;29;20221;-67
2024/01/04 17:46:25;;;;;;;0.40;0.40;;;8.90;99.90;;;;;;4916740;29;20201;-65
2024/01/04 17:48:54;;;;;;;0.30;0.30;;;8.90;99.90;;;;;;4916962;29;20314;-66
2024/01/04 17:51:22;;;;;;;0.30;0.25;;;8.90;99.90;;;;;;4924416;29;20192;-66
2024/01/04 17:53:48;;;;;;;0.30;0.30;;;8.90;99.90;;;;;;4918456;29;20205;-67
2024/01/04 17:56:14;;;;;;;0.30;0.30;;;8.90;99.90;;;;;;4934579;29;20190;-66